sensor_id;sensor_type;location;lat;lon;timestamp;temperature;humidity
17740;DHT22;8990;33.226;-97.150;2023-04-25T00:00:50;20.00;99.90
17740;DHT22;8990;33.226;-97.150;2023-04-25T00:03:20;19.90;99.90
17740;DHT22;8990;33.226;-97.150;2023-04-25T00:05:49;19.90;99.90
17740;DHT22;8990;33.226;-97.150;2023-04-25T00:08:18;19.90;99.90
17740;DHT22;8990;33.226;-97.150;2023-04-25T00:10:47;19.80;99.90
17740;DHT22;8990;33.226;-97.150;2023-04-25T00:13:19;19.80;99.90
17740;DHT22;8990;33.226;-97.150;2023-04-25T00:15:49;19.80;99.90
17740;DHT22;8990;33.226;-97.150;2023-04-25T00:18:20;19.70;99.90
17740;DHT22;8990;33.226;-97.150;2023-04-25T00:20:49;19.70;99.90
17740;DHT22;8990;33.226;-97.150;2023-04-25T00:23:18;19.70;99.90
17740;DHT22;8990;33.226;-97.150;2023-04-25T00:25:48;19.60;99.90
17740;DHT22;8990;33.226;-97.150;2023-04-25T00:28:18;19.60;99.90
17740;DHT22;8990;33.226;-97.150;2023-04-25T00:30:47;19.50;99.90
17740;DHT22;8990;33.226;-97.150;2023-04-25T00:33:16;19.40;99.90
17740;DHT22;8990;33.226;-97.150;2023-04-25T00:35:46;19.40;99.90
17740;DHT22;8990;33.226;-97.150;2023-04-25T00:38:15;19.40;99.90
17740;DHT22;8990;33.226;-97.150;2023-04-25T00:40:44;19.30;99.90
17740;DHT22;8990;33.226;-97.150;2023-04-25T00:43:12;19.30;99.90
17740;DHT22;8990;33.226;-97.150;2023-04-25T00:45:44;19.20;99.90
17740;DHT22;8990;33.226;-97.150;2023-04-25T00:48:15;19.10;99.90
17740;DHT22;8990;33.226;-97.150;2023-04-25T00:50:51;19.10;99.90
17740;DHT22;8990;33.226;-97.150;2023-04-25T00:53:20;19.10;99.90
17740;DHT22;8990;33.226;-97.150;2023-04-25T00:55:50;19.10;99.90
17740;DHT22;8990;33.226;-97.150;2023-04-25T00:58:20;19.10;99.90
17740;DHT22;8990;33.226;-97.150;2023-04-25T01:00:52;19.10;99.90
17740;DHT22;8990;33.226;-97.150;2023-04-25T01:03:21;19.00;99.90
17740;DHT22;8990;33.226;-97.150;2023-04-25T01:05:50;19.00;99.90
17740;DHT22;8990;33.226;-97.150;2023-04-25T01:08:21;19.00;99.90
17740;DHT22;8990;33.226;-97.150;2023-04-25T01:10:52;18.90;99.90
17740;DHT22;8990;33.226;-97.150;2023-04-25T01:13:21;18.80;99.90
17740;DHT22;8990;33.226;-97.150;2023-04-25T01:15:52;18.70;99.90
17740;DHT22;8990;33.226;-97.150;2023-04-25T01:18:21;18.50;99.90
17740;DHT22;8990;33.226;-97.150;2023-04-25T01:20:51;18.50;99.90
17740;DHT22;8990;33.226;-97.150;2023-04-25T01:23:23;18.40;99.90
17740;DHT22;8990;33.226;-97.150;2023-04-25T01:25:53;18.40;99.90
17740;DHT22;8990;33.226;-97.150;2023-04-25T01:28:22;18.40;99.90
17740;DHT22;8990;33.226;-97.150;2023-04-25T01:30:52;18.40;99.90
17740;DHT22;8990;33.226;-97.150;2023-04-25T01:33:22;18.40;99.90
17740;DHT22;8990;33.226;-97.150;2023-04-25T01:35:52;18.40;99.90
17740;DHT22;8990;33.226;-97.150;2023-04-25T01:38:23;18.40;99.90
17740;DHT22;8990;33.226;-97.150;2023-04-25T01:40:55;18.30;99.90
17740;DHT22;8990;33.226;-97.150;2023-04-25T01:43:24;18.30;99.90
17740;DHT22;8990;33.226;-97.150;2023-04-25T01:45:53;18.30;99.90
17740;DHT22;8990;33.226;-97.150;2023-04-25T01:48:23;18.20;99.90
17740;DHT22;8990;33.226;-97.150;2023-04-25T01:50:52;18.20;99.90
17740;DHT22;8990;33.226;-97.150;2023-04-25T01:53:22;18.10;99.90
17740;DHT22;8990;33.226;-97.150;2023-04-25T01:55:52;18.10;99.90
17740;DHT22;8990;33.226;-97.150;2023-04-25T01:58:23;18.10;99.90
17740;DHT22;8990;33.226;-97.150;2023-04-25T02:01:24;18.10;99.90
17740;DHT22;8990;33.226;-97.150;2023-04-25T02:04:11;18.10;99.90
17740;DHT22;8990;33.226;-97.150;2023-04-25T02:06:41;18.10;99.90
17740;DHT22;8990;33.226;-97.150;2023-04-25T02:09:12;18.10;99.90
17740;DHT22;8990;33.226;-97.150;2023-04-25T02:11:46;18.00;99.90
17740;DHT22;8990;33.226;-97.150;2023-04-25T02:14:47;18.00;99.90
17740;DHT22;8990;33.226;-97.150;2023-04-25T02:17:24;18.00;99.90
17740;DHT22;8990;33.226;-97.150;2023-04-25T02:19:53;18.00;99.90
17740;DHT22;8990;33.226;-97.150;2023-04-25T02:22:23;18.00;99.90
17740;DHT22;8990;33.226;-97.150;2023-04-25T02:24:55;18.00;99.90
17740;DHT22;8990;33.226;-97.150;2023-04-25T02:27:25;18.10;99.90
17740;DHT22;8990;33.226;-97.150;2023-04-25T02:29:54;18.10;99.90
17740;DHT22;8990;33.226;-97.150;2023-04-25T02:32:22;18.10;99.90
17740;DHT22;8990;33.226;-97.150;2023-04-25T02:34:51;18.10;99.90
17740;DHT22;8990;33.226;-97.150;2023-04-25T02:37:20;18.10;99.90
17740;DHT22;8990;33.226;-97.150;2023-04-25T02:39:50;18.00;99.90
17740;DHT22;8990;33.226;-97.150;2023-04-25T02:42:20;18.10;99.90
17740;DHT22;8990;33.226;-97.150;2023-04-25T02:44:50;18.10;99.90
17740;DHT22;8990;33.226;-97.150;2023-04-25T02:47:21;18.10;99.90
17740;DHT22;8990;33.226;-97.150;2023-04-25T02:49:50;18.10;99.90
17740;DHT22;8990;33.226;-97.150;2023-04-25T02:52:19;18.10;99.90
17740;DHT22;8990;33.226;-97.150;2023-04-25T02:54:56;18.10;99.90
17740;DHT22;8990;33.226;-97.150;2023-04-25T02:57:27;18.10;99.90
17740;DHT22;8990;33.226;-97.150;2023-04-25T02:59:56;18.10;99.90
17740;DHT22;8990;33.226;-97.150;2023-04-25T03:02:25;18.10;99.90
17740;DHT22;8990;33.226;-97.150;2023-04-25T03:04:54;18.10;99.90
17740;DHT22;8990;33.226;-97.150;2023-04-25T03:07:23;18.10;99.90
17740;DHT22;8990;33.226;-97.150;2023-04-25T03:09:52;18.10;99.90
17740;DHT22;8990;33.226;-97.150;2023-04-25T03:12:23;18.20;99.90
17740;DHT22;8990;33.226;-97.150;2023-04-25T03:14:55;18.00;99.90
17740;DHT22;8990;33.226;-97.150;2023-04-25T03:17:24;18.10;99.90
17740;DHT22;8990;33.226;-97.150;2023-04-25T03:19:52;18.00;99.90
17740;DHT22;8990;33.226;-97.150;2023-04-25T03:22:22;18.10;99.90
17740;DHT22;8990;33.226;-97.150;2023-04-25T03:24:51;18.00;99.90
17740;DHT22;8990;33.226;-97.150;2023-04-25T03:27:20;18.00;99.90
17740;DHT22;8990;33.226;-97.150;2023-04-25T03:29:50;18.00;99.90
17740;DHT22;8990;33.226;-97.150;2023-04-25T03:32:21;18.00;99.90
17740;DHT22;8990;33.226;-97.150;2023-04-25T03:34:50;17.90;99.90
17740;DHT22;8990;33.226;-97.150;2023-04-25T03:37:19;17.80;99.90
17740;DHT22;8990;33.226;-97.150;2023-04-25T03:39:48;17.80;99.90
17740;DHT22;8990;33.226;-97.150;2023-04-25T03:42:17;17.80;99.90
17740;DHT22;8990;33.226;-97.150;2023-04-25T03:44:46;17.70;99.90
17740;DHT22;8990;33.226;-97.150;2023-04-25T03:47:15;17.70;99.90
17740;DHT22;8990;33.226;-97.150;2023-04-25T03:49:47;17.60;99.90
17740;DHT22;8990;33.226;-97.150;2023-04-25T03:52:22;17.60;99.90
17740;DHT22;8990;33.226;-97.150;2023-04-25T03:54:51;17.60;99.90
17740;DHT22;8990;33.226;-97.150;2023-04-25T03:57:22;17.70;99.90
17740;DHT22;8990;33.226;-97.150;2023-04-25T03:59:52;17.70;99.90
17740;DHT22;8990;33.226;-97.150;2023-04-25T04:02:21;17.70;99.90
17740;DHT22;8990;33.226;-97.150;2023-04-25T04:04:54;17.70;99.90
17740;DHT22;8990;33.226;-97.150;2023-04-25T04:07:23;17.60;99.90
17740;DHT22;8990;33.226;-97.150;2023-04-25T04:09:56;17.60;99.90
17740;DHT22;8990;33.226;-97.150;2023-04-25T04:12:30;17.70;99.90
17740;DHT22;8990;33.226;-97.150;2023-04-25T04:14:59;17.60;99.90
17740;DHT22;8990;33.226;-97.150;2023-04-25T04:17:29;17.70;99.90
17740;DHT22;8990;33.226;-97.150;2023-04-25T04:19:59;17.70;99.90
17740;DHT22;8990;33.226;-97.150;2023-04-25T04:22:31;17.70;99.90
17740;DHT22;8990;33.226;-97.150;2023-04-25T04:25:07;17.70;99.90
17740;DHT22;8990;33.226;-97.150;2023-04-25T04:27:56;17.80;99.90
17740;DHT22;8990;33.226;-97.150;2023-04-25T04:30:37;17.70;99.90
17740;DHT22;8990;33.226;-97.150;2023-04-25T04:33:08;17.70;99.90
17740;DHT22;8990;33.226;-97.150;2023-04-25T04:35:40;17.70;99.90
17740;DHT22;8990;33.226;-97.150;2023-04-25T04:38:10;17.70;99.90
17740;DHT22;8990;33.226;-97.150;2023-04-25T04:40:42;17.70;99.90
17740;DHT22;8990;33.226;-97.150;2023-04-25T04:43:20;17.80;99.90
17740;DHT22;8990;33.226;-97.150;2023-04-25T04:46:08;17.70;99.90
17740;DHT22;8990;33.226;-97.150;2023-04-25T04:48:55;17.80;99.90
17740;DHT22;8990;33.226;-97.150;2023-04-25T04:52:00;17.70;99.90
17740;DHT22;8990;33.226;-97.150;2023-04-25T04:55:02;17.70;99.90
17740;DHT22;8990;33.226;-97.150;2023-04-25T04:57:54;17.70;99.90
17740;DHT22;8990;33.226;-97.150;2023-04-25T05:00:41;17.70;99.90
17740;DHT22;8990;33.226;-97.150;2023-04-25T05:03:20;17.70;99.90
17740;DHT22;8990;33.226;-97.150;2023-04-25T05:06:04;17.70;99.90
17740;DHT22;8990;33.226;-97.150;2023-04-25T05:08:49;17.70;99.90
17740;DHT22;8990;33.226;-97.150;2023-04-25T05:11:20;17.60;99.90
17740;DHT22;8990;33.226;-97.150;2023-04-25T05:14:09;17.60;99.90
17740;DHT22;8990;33.226;-97.150;2023-04-25T05:17:10;17.60;99.90
17740;DHT22;8990;33.226;-97.150;2023-04-25T05:20:02;17.70;99.90
17740;DHT22;8990;33.226;-97.150;2023-04-25T05:22:52;17.70;99.90
17740;DHT22;8990;33.226;-97.150;2023-04-25T05:25:36;17.70;99.90
17740;DHT22;8990;33.226;-97.150;2023-04-25T05:28:15;17.70;99.90
17740;DHT22;8990;33.226;-97.150;2023-04-25T05:31:02;17.70;99.90
17740;DHT22;8990;33.226;-97.150;2023-04-25T05:33:42;17.80;99.90
17740;DHT22;8990;33.226;-97.150;2023-04-25T05:36:11;17.80;99.90
17740;DHT22;8990;33.226;-97.150;2023-04-25T05:38:40;17.80;99.90
17740;DHT22;8990;33.226;-97.150;2023-04-25T05:41:13;17.80;99.90
17740;DHT22;8990;33.226;-97.150;2023-04-25T05:43:49;17.80;99.90
17740;DHT22;8990;33.226;-97.150;2023-04-25T05:46:34;17.80;99.90
17740;DHT22;8990;33.226;-97.150;2023-04-25T05:49:14;17.80;99.90
17740;DHT22;8990;33.226;-97.150;2023-04-25T05:52:00;17.80;99.90
17740;DHT22;8990;33.226;-97.150;2023-04-25T05:54:41;17.80;99.90
17740;DHT22;8990;33.226;-97.150;2023-04-25T05:57:19;17.80;99.90
17740;DHT22;8990;33.226;-97.150;2023-04-25T05:59:49;17.80;99.90
17740;DHT22;8990;33.226;-97.150;2023-04-25T06:02:19;17.80;99.90
17740;DHT22;8990;33.226;-97.150;2023-04-25T06:04:50;17.80;99.90
17740;DHT22;8990;33.226;-97.150;2023-04-25T06:07:19;17.90;99.90
17740;DHT22;8990;33.226;-97.150;2023-04-25T06:09:48;17.90;99.90
17740;DHT22;8990;33.226;-97.150;2023-04-25T06:12:19;17.90;99.90
17740;DHT22;8990;33.226;-97.150;2023-04-25T06:14:50;17.90;99.90
17740;DHT22;8990;33.226;-97.150;2023-04-25T06:17:19;17.90;99.90
17740;DHT22;8990;33.226;-97.150;2023-04-25T06:19:50;17.90;99.90
17740;DHT22;8990;33.226;-97.150;2023-04-25T06:22:19;17.90;99.90
17740;DHT22;8990;33.226;-97.150;2023-04-25T06:24:48;17.90;99.90
17740;DHT22;8990;33.226;-97.150;2023-04-25T06:27:19;17.90;99.90
17740;DHT22;8990;33.226;-97.150;2023-04-25T06:29:47;17.90;99.90
17740;DHT22;8990;33.226;-97.150;2023-04-25T06:32:16;17.80;99.90
17740;DHT22;8990;33.226;-97.150;2023-04-25T06:34:46;17.80;99.90
17740;DHT22;8990;33.226;-97.150;2023-04-25T06:37:16;17.90;99.90
17740;DHT22;8990;33.226;-97.150;2023-04-25T06:39:46;17.90;99.90
17740;DHT22;8990;33.226;-97.150;2023-04-25T06:42:15;17.90;99.90
17740;DHT22;8990;33.226;-97.150;2023-04-25T06:44:59;17.80;99.90
17740;DHT22;8990;33.226;-97.150;2023-04-25T06:47:29;17.90;99.90
17740;DHT22;8990;33.226;-97.150;2023-04-25T06:50:01;17.80;99.90
17740;DHT22;8990;33.226;-97.150;2023-04-25T06:52:31;17.80;99.90
17740;DHT22;8990;33.226;-97.150;2023-04-25T06:55:01;17.80;99.90
17740;DHT22;8990;33.226;-97.150;2023-04-25T06:57:44;17.80;99.90
17740;DHT22;8990;33.226;-97.150;2023-04-25T07:00:37;17.80;99.90
17740;DHT22;8990;33.226;-97.150;2023-04-25T07:03:06;17.80;99.90
17740;DHT22;8990;33.226;-97.150;2023-04-25T07:05:35;17.70;99.90
17740;DHT22;8990;33.226;-97.150;2023-04-25T07:08:04;17.80;99.90
17740;DHT22;8990;33.226;-97.150;2023-04-25T07:10:33;17.70;99.90
17740;DHT22;8990;33.226;-97.150;2023-04-25T07:13:03;17.80;99.90
17740;DHT22;8990;33.226;-97.150;2023-04-25T07:15:32;17.70;99.90
17740;DHT22;8990;33.226;-97.150;2023-04-25T07:18:03;17.70;99.90
17740;DHT22;8990;33.226;-97.150;2023-04-25T07:20:32;17.70;99.90
17740;DHT22;8990;33.226;-97.150;2023-04-25T07:23:02;17.70;99.90
17740;DHT22;8990;33.226;-97.150;2023-04-25T07:25:32;17.70;99.90
17740;DHT22;8990;33.226;-97.150;2023-04-25T07:28:03;17.80;99.90
17740;DHT22;8990;33.226;-97.150;2023-04-25T07:30:32;17.70;99.90
17740;DHT22;8990;33.226;-97.150;2023-04-25T07:33:05;17.70;99.90
17740;DHT22;8990;33.226;-97.150;2023-04-25T07:35:35;17.70;99.90
17740;DHT22;8990;33.226;-97.150;2023-04-25T07:38:04;17.70;99.90
17740;DHT22;8990;33.226;-97.150;2023-04-25T07:40:34;17.70;99.90
17740;DHT22;8990;33.226;-97.150;2023-04-25T07:43:06;17.60;99.90
17740;DHT22;8990;33.226;-97.150;2023-04-25T07:45:43;17.60;99.90
17740;DHT22;8990;33.226;-97.150;2023-04-25T07:48:17;17.70;99.90
17740;DHT22;8990;33.226;-97.150;2023-04-25T07:50:47;17.60;99.90
17740;DHT22;8990;33.226;-97.150;2023-04-25T07:53:16;17.60;99.90
17740;DHT22;8990;33.226;-97.150;2023-04-25T07:55:52;17.60;99.90
17740;DHT22;8990;33.226;-97.150;2023-04-25T07:58:22;17.60;99.90
17740;DHT22;8990;33.226;-97.150;2023-04-25T08:00:55;17.60;99.90
17740;DHT22;8990;33.226;-97.150;2023-04-25T08:03:31;17.60;99.90
17740;DHT22;8990;33.226;-97.150;2023-04-25T08:06:03;17.50;99.90
17740;DHT22;8990;33.226;-97.150;2023-04-25T08:08:38;17.50;99.90
17740;DHT22;8990;33.226;-97.150;2023-04-25T08:11:08;17.50;99.90
17740;DHT22;8990;33.226;-97.150;2023-04-25T08:13:37;17.50;99.90
17740;DHT22;8990;33.226;-97.150;2023-04-25T08:16:06;17.50;99.90
17740;DHT22;8990;33.226;-97.150;2023-04-25T08:18:37;17.40;99.90
17740;DHT22;8990;33.226;-97.150;2023-04-25T08:21:06;17.50;99.90
17740;DHT22;8990;33.226;-97.150;2023-04-25T08:23:35;17.40;99.90
17740;DHT22;8990;33.226;-97.150;2023-04-25T08:26:11;17.50;99.90
17740;DHT22;8990;33.226;-97.150;2023-04-25T08:28:42;17.40;99.90
17740;DHT22;8990;33.226;-97.150;2023-04-25T08:31:11;17.50;99.90
17740;DHT22;8990;33.226;-97.150;2023-04-25T08:33:53;17.40;99.90
17740;DHT22;8990;33.226;-97.150;2023-04-25T08:36:42;17.40;99.90
17740;DHT22;8990;33.226;-97.150;2023-04-25T08:39:21;17.40;99.90
17740;DHT22;8990;33.226;-97.150;2023-04-25T08:42:16;17.40;99.90
17740;DHT22;8990;33.226;-97.150;2023-04-25T08:44:45;17.40;99.90
17740;DHT22;8990;33.226;-97.150;2023-04-25T08:47:16;17.40;99.90
17740;DHT22;8990;33.226;-97.150;2023-04-25T08:49:54;17.30;99.90
17740;DHT22;8990;33.226;-97.150;2023-04-25T08:52:24;17.40;99.90
17740;DHT22;8990;33.226;-97.150;2023-04-25T08:54:57;17.30;99.90
17740;DHT22;8990;33.226;-97.150;2023-04-25T08:57:28;17.30;99.90
17740;DHT22;8990;33.226;-97.150;2023-04-25T08:59:58;17.30;99.90
17740;DHT22;8990;33.226;-97.150;2023-04-25T09:02:30;17.30;99.90
17740;DHT22;8990;33.226;-97.150;2023-04-25T09:05:01;17.30;99.90
17740;DHT22;8990;33.226;-97.150;2023-04-25T09:07:31;17.20;99.90
17740;DHT22;8990;33.226;-97.150;2023-04-25T09:10:00;17.20;99.90
17740;DHT22;8990;33.226;-97.150;2023-04-25T09:12:35;17.10;99.90
17740;DHT22;8990;33.226;-97.150;2023-04-25T09:15:07;17.20;99.90
17740;DHT22;8990;33.226;-97.150;2023-04-25T09:17:56;17.10;99.90
17740;DHT22;8990;33.226;-97.150;2023-04-25T09:20:31;17.10;99.90
17740;DHT22;8990;33.226;-97.150;2023-04-25T09:23:05;17.10;99.90
17740;DHT22;8990;33.226;-97.150;2023-04-25T09:25:38;17.10;99.90
17740;DHT22;8990;33.226;-97.150;2023-04-25T09:28:10;17.10;99.90
17740;DHT22;8990;33.226;-97.150;2023-04-25T09:30:40;17.10;99.90
17740;DHT22;8990;33.226;-97.150;2023-04-25T09:33:28;17.10;99.90
17740;DHT22;8990;33.226;-97.150;2023-04-25T09:36:05;17.00;99.90
17740;DHT22;8990;33.226;-97.150;2023-04-25T09:39:00;17.00;99.90
17740;DHT22;8990;33.226;-97.150;2023-04-25T09:41:37;17.00;99.90
17740;DHT22;8990;33.226;-97.150;2023-04-25T09:44:07;17.00;99.90
17740;DHT22;8990;33.226;-97.150;2023-04-25T09:46:37;16.90;99.90
17740;DHT22;8990;33.226;-97.150;2023-04-25T09:49:15;16.90;99.90
17740;DHT22;8990;33.226;-97.150;2023-04-25T09:51:58;17.00;99.90
17740;DHT22;8990;33.226;-97.150;2023-04-25T09:54:42;16.90;99.90
17740;DHT22;8990;33.226;-97.150;2023-04-25T09:57:21;16.90;99.90
17740;DHT22;8990;33.226;-97.150;2023-04-25T09:59:51;16.90;99.90
17740;DHT22;8990;33.226;-97.150;2023-04-25T10:02:22;16.80;99.90
17740;DHT22;8990;33.226;-97.150;2023-04-25T10:04:55;16.80;99.90
17740;DHT22;8990;33.226;-97.150;2023-04-25T10:07:31;16.80;99.90
17740;DHT22;8990;33.226;-97.150;2023-04-25T10:10:03;16.70;99.90
17740;DHT22;8990;33.226;-97.150;2023-04-25T10:12:33;16.70;99.90
17740;DHT22;8990;33.226;-97.150;2023-04-25T10:15:05;16.60;99.90
17740;DHT22;8990;33.226;-97.150;2023-04-25T10:17:35;16.60;99.90
17740;DHT22;8990;33.226;-97.150;2023-04-25T10:20:07;16.50;99.90
17740;DHT22;8990;33.226;-97.150;2023-04-25T10:22:42;16.80;99.90
17740;DHT22;8990;33.226;-97.150;2023-04-25T10:25:12;16.40;99.90
17740;DHT22;8990;33.226;-97.150;2023-04-25T10:27:42;16.40;99.90
17740;DHT22;8990;33.226;-97.150;2023-04-25T10:30:14;16.40;99.90
17740;DHT22;8990;33.226;-97.150;2023-04-25T10:32:43;16.40;99.90
17740;DHT22;8990;33.226;-97.150;2023-04-25T10:35:13;16.40;99.90
17740;DHT22;8990;33.226;-97.150;2023-04-25T10:38:02;16.40;99.90
17740;DHT22;8990;33.226;-97.150;2023-04-25T10:40:32;16.30;99.90
17740;DHT22;8990;33.226;-97.150;2023-04-25T10:43:35;16.30;99.90
17740;DHT22;8990;33.226;-97.150;2023-04-25T10:46:13;16.30;99.90
17740;DHT22;8990;33.226;-97.150;2023-04-25T10:48:47;16.30;99.90
17740;DHT22;8990;33.226;-97.150;2023-04-25T10:51:18;16.40;99.90
17740;DHT22;8990;33.226;-97.150;2023-04-25T10:53:57;16.40;99.90
17740;DHT22;8990;33.226;-97.150;2023-04-25T10:56:29;16.30;99.90
17740;DHT22;8990;33.226;-97.150;2023-04-25T10:59:09;16.40;99.90
17740;DHT22;8990;33.226;-97.150;2023-04-25T11:01:40;16.40;99.90
17740;DHT22;8990;33.226;-97.150;2023-04-25T11:04:23;16.30;99.90
17740;DHT22;8990;33.226;-97.150;2023-04-25T11:07:09;16.30;99.90
17740;DHT22;8990;33.226;-97.150;2023-04-25T11:09:43;16.30;99.90
17740;DHT22;8990;33.226;-97.150;2023-04-25T11:12:13;16.30;99.90
17740;DHT22;8990;33.226;-97.150;2023-04-25T11:14:43;16.30;99.90
17740;DHT22;8990;33.226;-97.150;2023-04-25T11:17:12;16.30;99.90
17740;DHT22;8990;33.226;-97.150;2023-04-25T11:19:41;16.30;99.90
17740;DHT22;8990;33.226;-97.150;2023-04-25T11:22:10;16.30;99.90
17740;DHT22;8990;33.226;-97.150;2023-04-25T11:24:42;16.20;99.90
17740;DHT22;8990;33.226;-97.150;2023-04-25T11:27:11;16.20;99.90
17740;DHT22;8990;33.226;-97.150;2023-04-25T11:29:41;16.20;99.90
17740;DHT22;8990;33.226;-97.150;2023-04-25T11:32:10;16.40;99.90
17740;DHT22;8990;33.226;-97.150;2023-04-25T11:34:39;16.20;99.90
17740;DHT22;8990;33.226;-97.150;2023-04-25T11:37:11;16.20;99.90
17740;DHT22;8990;33.226;-97.150;2023-04-25T11:39:45;16.20;99.90
17740;DHT22;8990;33.226;-97.150;2023-04-25T11:42:14;16.20;99.90
17740;DHT22;8990;33.226;-97.150;2023-04-25T11:44:44;16.20;99.90
17740;DHT22;8990;33.226;-97.150;2023-04-25T11:47:13;16.20;99.90
17740;DHT22;8990;33.226;-97.150;2023-04-25T11:49:42;16.10;99.90
17740;DHT22;8990;33.226;-97.150;2023-04-25T11:52:11;16.00;99.90
17740;DHT22;8990;33.226;-97.150;2023-04-25T11:54:40;15.90;99.90
17740;DHT22;8990;33.226;-97.150;2023-04-25T11:57:12;15.90;99.90
17740;DHT22;8990;33.226;-97.150;2023-04-25T11:59:41;15.90;99.90
17740;DHT22;8990;33.226;-97.150;2023-04-25T12:02:24;15.80;99.90
17740;DHT22;8990;33.226;-97.150;2023-04-25T12:04:55;15.80;99.90
17740;DHT22;8990;33.226;-97.150;2023-04-25T12:07:29;15.70;99.90
17740;DHT22;8990;33.226;-97.150;2023-04-25T12:09:58;15.70;99.90
17740;DHT22;8990;33.226;-97.150;2023-04-25T12:12:32;15.80;99.90
17740;DHT22;8990;33.226;-97.150;2023-04-25T12:15:12;15.70;99.90
17740;DHT22;8990;33.226;-97.150;2023-04-25T12:17:44;15.70;99.90
17740;DHT22;8990;33.226;-97.150;2023-04-25T12:20:14;15.80;99.90
17740;DHT22;8990;33.226;-97.150;2023-04-25T12:22:45;15.70;99.90
17740;DHT22;8990;33.226;-97.150;2023-04-25T12:25:35;15.70;99.90
17740;DHT22;8990;33.226;-97.150;2023-04-25T12:28:19;15.70;99.90
17740;DHT22;8990;33.226;-97.150;2023-04-25T12:30:58;15.70;99.90
17740;DHT22;8990;33.226;-97.150;2023-04-25T12:33:28;15.60;99.90
17740;DHT22;8990;33.226;-97.150;2023-04-25T12:35:58;15.60;99.90
17740;DHT22;8990;33.226;-97.150;2023-04-25T12:38:28;15.50;99.90
17740;DHT22;8990;33.226;-97.150;2023-04-25T12:40:58;15.50;99.90
17740;DHT22;8990;33.226;-97.150;2023-04-25T12:43:29;15.50;99.90
17740;DHT22;8990;33.226;-97.150;2023-04-25T12:45:58;15.40;99.90
17740;DHT22;8990;33.226;-97.150;2023-04-25T12:48:27;15.40;99.90
17740;DHT22;8990;33.226;-97.150;2023-04-25T12:50:56;15.40;99.90
17740;DHT22;8990;33.226;-97.150;2023-04-25T12:53:25;15.30;99.90
17740;DHT22;8990;33.226;-97.150;2023-04-25T12:55:54;15.20;99.90
17740;DHT22;8990;33.226;-97.150;2023-04-25T12:58:23;15.20;99.90
17740;DHT22;8990;33.226;-97.150;2023-04-25T13:00:54;15.30;99.90
17740;DHT22;8990;33.226;-97.150;2023-04-25T13:03:23;15.30;99.90
17740;DHT22;8990;33.226;-97.150;2023-04-25T13:05:52;15.30;99.90
17740;DHT22;8990;33.226;-97.150;2023-04-25T13:08:21;15.30;99.90
17740;DHT22;8990;33.226;-97.150;2023-04-25T13:10:50;15.30;99.90
17740;DHT22;8990;33.226;-97.150;2023-04-25T13:13:18;15.40;99.90
17740;DHT22;8990;33.226;-97.150;2023-04-25T13:15:47;15.40;99.90
17740;DHT22;8990;33.226;-97.150;2023-04-25T13:18:18;15.40;99.90
17740;DHT22;8990;33.226;-97.150;2023-04-25T13:20:47;15.40;99.90
17740;DHT22;8990;33.226;-97.150;2023-04-25T13:23:16;15.40;99.90
17740;DHT22;8990;33.226;-97.150;2023-04-25T13:25:45;15.40;99.90
17740;DHT22;8990;33.226;-97.150;2023-04-25T13:28:14;15.40;99.90
17740;DHT22;8990;33.226;-97.150;2023-04-25T13:30:44;15.50;99.90
17740;DHT22;8990;33.226;-97.150;2023-04-25T13:33:20;15.50;99.90
17740;DHT22;8990;33.226;-97.150;2023-04-25T13:35:52;15.50;99.90
17740;DHT22;8990;33.226;-97.150;2023-04-25T13:38:26;15.50;99.90
17740;DHT22;8990;33.226;-97.150;2023-04-25T13:41:01;15.50;99.90
17740;DHT22;8990;33.226;-97.150;2023-04-25T13:43:33;15.40;99.90
17740;DHT22;8990;33.226;-97.150;2023-04-25T13:46:05;15.40;99.90
17740;DHT22;8990;33.226;-97.150;2023-04-25T13:48:38;15.50;99.90
17740;DHT22;8990;33.226;-97.150;2023-04-25T13:51:15;15.50;99.90
17740;DHT22;8990;33.226;-97.150;2023-04-25T13:53:44;15.50;99.90
17740;DHT22;8990;33.226;-97.150;2023-04-25T13:56:13;15.50;99.90
17740;DHT22;8990;33.226;-97.150;2023-04-25T13:58:43;15.50;99.90
17740;DHT22;8990;33.226;-97.150;2023-04-25T14:01:12;15.50;99.90
17740;DHT22;8990;33.226;-97.150;2023-04-25T14:03:42;15.60;99.90
17740;DHT22;8990;33.226;-97.150;2023-04-25T14:06:11;15.60;99.90
17740;DHT22;8990;33.226;-97.150;2023-04-25T14:08:41;15.50;99.90
17740;DHT22;8990;33.226;-97.150;2023-04-25T14:11:10;15.60;99.90
17740;DHT22;8990;33.226;-97.150;2023-04-25T14:13:39;15.70;99.90
17740;DHT22;8990;33.226;-97.150;2023-04-25T14:16:07;15.70;99.90
17740;DHT22;8990;33.226;-97.150;2023-04-25T14:18:36;15.70;99.90
17740;DHT22;8990;33.226;-97.150;2023-04-25T14:21:07;15.80;99.90
17740;DHT22;8990;33.226;-97.150;2023-04-25T14:23:36;15.80;99.90
17740;DHT22;8990;33.226;-97.150;2023-04-25T14:26:05;16.20;99.90
17740;DHT22;8990;33.226;-97.150;2023-04-25T14:28:36;16.00;99.90
17740;DHT22;8990;33.226;-97.150;2023-04-25T14:31:05;16.20;99.90
17740;DHT22;8990;33.226;-97.150;2023-04-25T14:33:35;16.30;99.90
17740;DHT22;8990;33.226;-97.150;2023-04-25T14:36:11;16.30;99.90
17740;DHT22;8990;33.226;-97.150;2023-04-25T14:38:41;16.40;99.90
17740;DHT22;8990;33.226;-97.150;2023-04-25T14:41:10;16.50;99.90
17740;DHT22;8990;33.226;-97.150;2023-04-25T14:43:39;16.50;99.90
17740;DHT22;8990;33.226;-97.150;2023-04-25T14:46:09;16.60;99.90
17740;DHT22;8990;33.226;-97.150;2023-04-25T14:48:39;16.70;99.90
17740;DHT22;8990;33.226;-97.150;2023-04-25T14:51:08;16.60;99.90
17740;DHT22;8990;33.226;-97.150;2023-04-25T14:53:39;16.80;99.90
17740;DHT22;8990;33.226;-97.150;2023-04-25T14:56:08;16.90;99.90
17740;DHT22;8990;33.226;-97.150;2023-04-25T14:58:37;17.00;99.90
17740;DHT22;8990;33.226;-97.150;2023-04-25T15:01:06;17.20;99.90
17740;DHT22;8990;33.226;-97.150;2023-04-25T15:03:35;17.20;99.90
17740;DHT22;8990;33.226;-97.150;2023-04-25T15:06:05;17.30;99.90
17740;DHT22;8990;33.226;-97.150;2023-04-25T15:08:34;17.40;99.90
17740;DHT22;8990;33.226;-97.150;2023-04-25T15:11:05;17.40;99.90
17740;DHT22;8990;33.226;-97.150;2023-04-25T15:13:34;17.40;99.90
17740;DHT22;8990;33.226;-97.150;2023-04-25T15:16:03;17.50;99.90
17740;DHT22;8990;33.226;-97.150;2023-04-25T15:18:33;17.60;99.90
17740;DHT22;8990;33.226;-97.150;2023-04-25T15:21:02;17.70;99.90
17740;DHT22;8990;33.226;-97.150;2023-04-25T15:23:31;17.70;99.90
17740;DHT22;8990;33.226;-97.150;2023-04-25T15:26:00;17.70;99.90
17740;DHT22;8990;33.226;-97.150;2023-04-25T15:28:30;17.70;99.90
17740;DHT22;8990;33.226;-97.150;2023-04-25T15:31:00;17.60;99.90
17740;DHT22;8990;33.226;-97.150;2023-04-25T15:33:29;17.80;99.90
17740;DHT22;8990;33.226;-97.150;2023-04-25T15:35:58;17.90;99.90
17740;DHT22;8990;33.226;-97.150;2023-04-25T15:38:30;17.90;99.90
17740;DHT22;8990;33.226;-97.150;2023-04-25T15:40:58;17.90;99.90
17740;DHT22;8990;33.226;-97.150;2023-04-25T15:43:29;17.90;99.90
17740;DHT22;8990;33.226;-97.150;2023-04-25T15:45:58;17.80;99.90
17740;DHT22;8990;33.226;-97.150;2023-04-25T15:48:27;17.90;99.90